Hermann - S — V2EI6 — position and weather

sailwx.info

Track history (hours):
 
Tides and Currents Weather Stations Pressure Air Temp Water Temp Dewpoint Dewpoint Depression Visibility Wind Speed Wind Dir Waves Ship Positions

Hermann - S

Last reported at 2016-Jun-21 08:19 UTC. Time now 2016-Jun-25 21:34 UTC.
Position N 26°49' W 014°49'.

Length 190 m; draft 10 m.

Type: Ship. MMSI: 305441000.

Date/timePositionNaut miles runAvg speedWind from/ knotsBaromVisibWave heightAir tempDewpointWater temp
2016-Jun-21 08:19N 26°49' W 014°49'1012.4
2016-Jun-21 07:32N 26°57' W 014°43'3912.5
2016-Jun-21 04:28N 27°27' W 014°16'1112.6
2016-Jun-21 03:33N 27°36' W 014°08'1412.4
2016-Jun-21 02:25N 27°47' W 013°57'1112.3
2016-Jun-21 01:30N 27°55' W 013°49'1112.1
2016-Jun-21 00:33N 28°04' W 013°41'2512.3
2016-Jun-20 22:30N 28°25' W 013°25'2412.6
2016-Jun-20 20:33N 28°45' W 013°09'3712.4
2016-Jun-20 17:32N 29°15' W 012°44'1212.3
2016-Jun-20 16:33N 29°26' W 012°36'1212.2
2016-Jun-20 15:33N 29°35' W 012°28'1211.9
2016-Jun-20 14:34N 29°45' W 012°20'1211.7
2016-Jun-20 13:33N 29°55' W 012°13'1511.8
2016-Jun-20 12:17N 30°07' W 012°02'912.1
2016-Jun-20 11:33N 30°14' W 011°57'1212.0
2016-Jun-20 10:33N 30°24' W 011°48'1511.6
2016-Jun-20 09:17N 30°36' W 011°39'911.8
2016-Jun-20 08:33N 30°43' W 011°33'3612.0
2016-Jun-20 05:33N 31°12' W 011°09'1212.3
2016-Jun-20 04:33N 31°22' W 011°00'1211.9
2016-Jun-20 03:33N 31°32' W 010°52'1212.0
2016-Jun-20 02:33N 31°42' W 010°44'1212.1
2016-Jun-20 01:33N 31°52' W 010°36'1712.3
2016-Jun-20 00:12N 32°05' W 010°25'3312.6
2016-Jun-19 21:33N 32°31' W 009°59'1312.6
2016-Jun-19 20:33N 32°41' W 009°50'3812.6
2016-Jun-19 17:33N 33°08' W 009°19'5512.4
2016-Jun-19 13:07N 33°47' W 008°33'10211.9
2016-Jun-19 04:33N 34°60' W 007°06'9812.2
2016-Jun-18 20:33N 35°59' W 005°31'9 8.5
2016-Jun-18 19:33N 36°05' W 005°24'4 3.1
2016-Jun-18 18:24N 36°08' W 005°23'0 0.1
2016-Jun-18 17:33N 36°08' W 005°23'0 0.1
2016-Jun-18 16:33N 36°08' W 005°23'0 0.0
2016-Jun-18 15:33N 36°08' W 005°23'0 0.1
2016-Jun-18 14:33N 36°08' W 005°23'0 0.0
2016-Jun-18 13:33N 36°08' W 005°23'0 0.0
2016-Jun-18 12:33N 36°08' W 005°23'1 0.8
2016-Jun-18 11:33N 36°08' W 005°23'7 7.3
2016-Jun-18 10:32N 36°06' W 005°14'  
2016-Jun-11 22:33N 36°59' W 001°19'1712.9
2016-Jun-11 21:14N 37°00' W 000°57'1012.6
2016-Jun-11 20:28N 37°01' W 000°45'1213.0
2016-Jun-11 19:33N 37°02' W 000°30'1313.1
2016-Jun-11 18:33N 37°03' W 000°14'1313.0
2016-Jun-11 17:33N 37°03' E 000°02'1413.5
2016-Jun-11 16:31N 37°04' E 000°20'3213.3
2016-Jun-11 14:06N 37°06' E 000°60'812.7
2016-Jun-11 13:30N 37°07' E 001°09'2412.0
2016-Jun-11 11:31N 37°08' E 001°39'  
Track history (hours):
 
Tides and Currents Weather Stations Pressure Air Temp Water Temp Dewpoint Dewpoint Depression Visibility Wind Speed Wind Dir Waves Ship Positions

Hermann - S

Last reported at 2016-Jun-21 08:19 UTC. Time now 2016-Jun-25 21:34 UTC.
Position N 26°49' W 014°49'.

Length 190 m; draft 10 m.

Type: Ship. MMSI: 305441000.

Date/timePositionNaut miles runAvg speedWind from/ knotsBaromVisibWave heightAir tempDewpointWater temp
2016-Jun-21 08:19N 26°49' W 014°49'1012.4
2016-Jun-21 07:32N 26°57' W 014°43'3912.5
2016-Jun-21 04:28N 27°27' W 014°16'1112.6
2016-Jun-21 03:33N 27°36' W 014°08'1412.4
2016-Jun-21 02:25N 27°47' W 013°57'1112.3
2016-Jun-21 01:30N 27°55' W 013°49'1112.1
2016-Jun-21 00:33N 28°04' W 013°41'2512.3
2016-Jun-20 22:30N 28°25' W 013°25'2412.6
2016-Jun-20 20:33N 28°45' W 013°09'3712.4
2016-Jun-20 17:32N 29°15' W 012°44'1212.3
2016-Jun-20 16:33N 29°26' W 012°36'1212.2
2016-Jun-20 15:33N 29°35' W 012°28'1211.9
2016-Jun-20 14:34N 29°45' W 012°20'1211.7
2016-Jun-20 13:33N 29°55' W 012°13'1511.8
2016-Jun-20 12:17N 30°07' W 012°02'912.1
2016-Jun-20 11:33N 30°14' W 011°57'1212.0
2016-Jun-20 10:33N 30°24' W 011°48'1511.6
2016-Jun-20 09:17N 30°36' W 011°39'911.8
2016-Jun-20 08:33N 30°43' W 011°33'3612.0
2016-Jun-20 05:33N 31°12' W 011°09'1212.3
2016-Jun-20 04:33N 31°22' W 011°00'1211.9
2016-Jun-20 03:33N 31°32' W 010°52'1212.0
2016-Jun-20 02:33N 31°42' W 010°44'1212.1
2016-Jun-20 01:33N 31°52' W 010°36'1712.3
2016-Jun-20 00:12N 32°05' W 010°25'3312.6
2016-Jun-19 21:33N 32°31' W 009°59'1312.6
2016-Jun-19 20:33N 32°41' W 009°50'3812.6
2016-Jun-19 17:33N 33°08' W 009°19'5512.4
2016-Jun-19 13:07N 33°47' W 008°33'10211.9
2016-Jun-19 04:33N 34°60' W 007°06'9812.2
2016-Jun-18 20:33N 35°59' W 005°31'9 8.5
2016-Jun-18 19:33N 36°05' W 005°24'4 3.1
2016-Jun-18 18:24N 36°08' W 005°23'0 0.1
2016-Jun-18 17:33N 36°08' W 005°23'0 0.1
2016-Jun-18 16:33N 36°08' W 005°23'0 0.0
2016-Jun-18 15:33N 36°08' W 005°23'0 0.1
2016-Jun-18 14:33N 36°08' W 005°23'0 0.0
2016-Jun-18 13:33N 36°08' W 005°23'0 0.0
2016-Jun-18 12:33N 36°08' W 005°23'1 0.8
2016-Jun-18 11:33N 36°08' W 005°23'7 7.3
2016-Jun-18 10:32N 36°06' W 005°14'  
2016-Jun-11 22:33N 36°59' W 001°19'1712.9
2016-Jun-11 21:14N 37°00' W 000°57'1012.6
2016-Jun-11 20:28N 37°01' W 000°45'1213.0
2016-Jun-11 19:33N 37°02' W 000°30'1313.1
2016-Jun-11 18:33N 37°03' W 000°14'1313.0
2016-Jun-11 17:33N 37°03' E 000°02'1413.5
2016-Jun-11 16:31N 37°04' E 000°20'3213.3
2016-Jun-11 14:06N 37°06' E 000°60'812.7
2016-Jun-11 13:30N 37°07' E 001°09'2412.0
2016-Jun-11 11:31N 37°08' E 001°39'  

Dump ship's entire track history